Terminal Aerodrome Forecast
Issued by NWS

Home | Current Version | Previous Version | Text Only | Print | Product List | Glossary On
Versions: 1 2 3 4 5 6 7 8 9 10 11 12 13 14 15 16
042
FTUS43 KMQT 220533
TAFIWD
TAF
KIWD 220533Z 2206/2306 00000KT 2SM BR OVC006
      TEMPO 2206/2208 1/2SM FG OVC003
     FM220800 00000KT 1/4SM FG VV001
     FM221600 33003KT 1SM BR OVC003
     FM222200 31003KT 2SM BR OVC005
     FM230200 29003KT 1/2SM FG VV002=

USA.gov is the U.S. government's official web portal to all federal, state and local government web resources and services.